createdAt,value
2019-05-30T00:02:12.199Z,0.93
2019-05-30T00:04:40.712Z,1.47
2019-05-30T00:07:11.140Z,1.83
2019-05-30T00:09:40.973Z,1.43
2019-05-30T00:12:10.481Z,1.30
2019-05-30T00:14:38.930Z,1.27
2019-05-30T00:17:09.446Z,1.77
2019-05-30T00:19:37.927Z,2.27
2019-05-30T00:22:09.774Z,1.37
2019-05-30T00:24:40.744Z,1.37
2019-05-30T00:27:09.101Z,1.63
2019-05-30T00:29:37.452Z,1.47
2019-05-30T00:32:07.848Z,1.20
2019-05-30T00:34:36.436Z,1.50
2019-05-30T00:37:05.962Z,1.40
2019-05-30T00:39:34.576Z,1.90
2019-05-30T00:42:04.213Z,1.70
2019-05-30T00:44:32.990Z,1.30
2019-05-30T00:47:04.330Z,1.33
2019-05-30T00:49:33.635Z,1.30
2019-05-30T00:52:05.236Z,1.30
2019-05-30T00:54:33.713Z,1.10
2019-05-30T00:57:02.789Z,1.33
2019-05-30T00:59:31.240Z,1.60
2019-05-30T01:02:00.639Z,2.00
2019-05-30T01:04:29.343Z,1.57
2019-05-30T01:06:58.955Z,1.10
2019-05-30T01:09:27.581Z,1.00
2019-05-30T01:11:57.018Z,1.20
2019-05-30T01:14:25.562Z,1.00
2019-05-30T01:16:53.918Z,1.13
2019-05-30T01:19:24.099Z,2.37
2019-05-30T01:21:52.563Z,1.50
2019-05-30T01:24:21.038Z,1.10
2019-05-30T01:26:49.507Z,1.70
2019-05-30T01:29:17.972Z,1.60
2019-05-30T01:31:46.643Z,1.70
2019-05-30T01:34:15.040Z,1.47
2019-05-30T01:36:43.410Z,2.20
2019-05-30T01:39:11.767Z,2.40
2019-05-30T01:41:41.648Z,2.17
2019-05-30T01:44:10.041Z,1.50
2019-05-30T01:46:38.426Z,1.57
2019-05-30T01:49:06.899Z,1.93
2019-05-30T01:51:35.281Z,1.73
2019-05-30T01:54:04.588Z,2.03
2019-05-30T01:56:33.175Z,2.00
2019-05-30T01:59:02.581Z,2.37
2019-05-30T02:01:32.927Z,1.90
2019-05-30T02:04:01.407Z,1.80
2019-05-30T02:06:29.877Z,1.83
2019-05-30T02:08:59.226Z,2.00
2019-05-30T02:11:27.643Z,1.80
2019-05-30T02:13:56.114Z,2.23
2019-05-30T02:16:25.020Z,2.00
2019-05-30T02:18:55.202Z,1.80
2019-05-30T02:21:25.365Z,1.47
2019-05-30T02:23:54.231Z,2.40
2019-05-30T02:26:22.825Z,2.10
2019-05-30T02:28:53.014Z,1.90
2019-05-30T02:31:37.655Z,1.87
2019-05-30T02:33:51.755Z,2.10
2019-05-30T02:36:20.147Z,2.07
2019-05-30T02:38:48.509Z,1.80
2019-05-30T02:41:17.085Z,1.63
2019-05-30T02:43:45.559Z,2.13
2019-05-30T02:46:15.747Z,2.13
2019-05-30T02:48:58.481Z,2.50
2019-05-30T02:51:15.413Z,2.20
2019-05-30T02:53:43.784Z,2.20
2019-05-30T02:56:12.644Z,2.40
2019-05-30T02:58:41.395Z,1.80
2019-05-30T03:01:11.947Z,1.73
2019-05-30T03:03:40.438Z,1.90
2019-05-30T03:06:11.055Z,1.93
2019-05-30T03:08:39.363Z,2.10
2019-05-30T03:11:10.863Z,1.73
2019-05-30T03:13:39.750Z,1.77
2019-05-30T03:16:09.340Z,2.00
2019-05-30T03:18:38.637Z,1.70
2019-05-30T03:21:08.629Z,2.13
2019-05-30T03:23:37.450Z,2.27
2019-05-30T03:26:09.259Z,1.93
2019-05-30T03:28:36.403Z,2.03
2019-05-30T03:31:13.954Z,2.37
2019-05-30T03:33:42.142Z,1.87
2019-05-30T03:36:15.468Z,1.90
2019-05-30T03:38:38.141Z,2.30
2019-05-30T03:41:07.483Z,2.20
2019-05-30T03:43:36.922Z,2.00
2019-05-30T03:46:13.213Z,1.87
2019-05-30T03:48:43.987Z,1.80
2019-05-30T03:51:15.174Z,1.90
2019-05-30T03:53:43.791Z,2.47
2019-05-30T03:56:20.380Z,2.37
2019-05-30T03:59:00.075Z,1.80
2019-05-30T04:01:41.412Z,2.50
2019-05-30T04:04:19.172Z,2.00
2019-05-30T04:06:55.183Z,1.90
2019-05-30T04:09:25.958Z,2.50
2019-05-30T04:12:43.434Z,1.93
2019-05-30T04:15:30.203Z,3.00
2019-05-30T04:17:58.584Z,2.10
2019-05-30T04:20:26.946Z,1.87
2019-05-30T04:22:55.523Z,2.33
2019-05-30T04:25:23.966Z,2.50
2019-05-30T04:27:52.460Z,1.90
2019-05-30T04:30:20.828Z,2.50
2019-05-30T04:32:49.290Z,2.20
2019-05-30T04:35:18.931Z,2.03
2019-05-30T04:37:47.572Z,2.93
2019-05-30T04:40:17.621Z,2.67
2019-05-30T04:42:46.625Z,2.83
2019-05-30T04:45:15.937Z,2.10
2019-05-30T04:47:44.881Z,2.67
2019-05-30T04:50:16.361Z,2.50
2019-05-30T04:52:45.275Z,2.43
2019-05-30T04:55:15.988Z,2.30
2019-05-30T04:57:44.284Z,2.90
2019-05-30T05:00:15.105Z,3.30
2019-05-30T05:02:43.759Z,2.93
2019-05-30T05:05:13.311Z,2.60
2019-05-30T05:07:43.177Z,2.63
2019-05-30T05:10:11.986Z,2.67
2019-05-30T05:12:40.651Z,2.40
2019-05-30T05:15:09.406Z,2.97
2019-05-30T05:17:38.021Z,2.70
2019-05-30T05:20:08.246Z,3.80
2019-05-30T05:22:36.640Z,3.10
2019-05-30T05:25:05.626Z,3.17
2019-05-30T05:27:34.673Z,3.10
2019-05-30T05:30:04.188Z,3.57
2019-05-30T05:32:34.374Z,3.23
2019-05-30T05:35:03.014Z,2.90
2019-05-30T05:37:31.480Z,4.00
2019-05-30T05:39:59.867Z,4.43
2019-05-30T05:42:30.143Z,4.97
2019-05-30T05:44:58.650Z,4.93
2019-05-30T05:47:27.106Z,5.20
2019-05-30T05:49:57.411Z,4.30
2019-05-30T05:52:29.186Z,4.07
2019-05-30T05:54:57.626Z,3.40
2019-05-30T05:57:26.097Z,3.70
2019-05-30T05:59:54.575Z,3.77
2019-05-30T06:02:23.298Z,4.37
2019-05-30T06:04:52.393Z,4.40
2019-05-30T06:07:20.792Z,5.20
2019-05-30T06:09:49.209Z,4.23
2019-05-30T06:12:17.704Z,4.30
2019-05-30T06:14:46.119Z,5.00
2019-05-30T06:17:14.508Z,5.07
2019-05-30T06:19:46.385Z,4.73
2019-05-30T06:22:17.570Z,4.90
2019-05-30T06:24:46.011Z,4.70
2019-05-30T06:27:14.782Z,5.60
2019-05-30T06:29:43.172Z,5.90
2019-05-30T06:32:12.133Z,5.20
2019-05-30T06:34:40.784Z,6.50
2019-05-30T06:37:12.023Z,6.63
2019-05-30T06:39:39.458Z,6.33
2019-05-30T06:42:08.530Z,7.30
2019-05-30T06:44:36.980Z,6.37
2019-05-30T06:47:07.145Z,4.97
2019-05-30T06:49:35.588Z,5.50
2019-05-30T06:52:04.497Z,4.40
2019-05-30T06:54:33.739Z,4.20
2019-05-30T06:57:03.164Z,4.97
2019-05-30T06:59:31.847Z,4.50
2019-05-30T07:02:00.431Z,6.23
2019-05-30T07:04:34.503Z,6.00
2019-05-30T07:06:59.595Z,6.43
2019-05-30T07:09:29.149Z,5.77
2019-05-30T07:11:58.010Z,5.30
2019-05-30T07:14:27.268Z,6.60
2019-05-30T07:16:55.990Z,5.73
2019-05-30T07:19:25.333Z,5.60
2019-05-30T07:21:53.916Z,5.77
2019-05-30T07:24:23.603Z,6.93
2019-05-30T07:26:53.652Z,5.83
2019-05-30T07:29:22.029Z,6.13
2019-05-30T07:31:50.498Z,6.53
2019-05-30T07:34:18.956Z,6.50
2019-05-30T07:36:48.316Z,6.17
2019-05-30T07:39:16.729Z,7.50
2019-05-30T07:41:45.393Z,7.00
2019-05-30T07:44:14.627Z,8.60
2019-05-30T07:46:43.441Z,6.73
2019-05-30T07:49:12.015Z,8.00
2019-05-30T07:51:40.386Z,6.40
2019-05-30T07:54:09.270Z,7.00
2019-05-30T07:56:38.113Z,5.20
2019-05-30T07:59:06.612Z,6.13
2019-05-30T08:01:35.955Z,5.07
2019-05-30T08:04:05.161Z,5.40
2019-05-30T08:06:34.212Z,5.13
2019-05-30T08:09:05.084Z,4.87
2019-05-30T08:11:35.010Z,4.20
2019-05-30T08:14:03.975Z,4.40
2019-05-30T08:16:33.300Z,4.87
2019-05-30T08:19:02.702Z,4.73
2019-05-30T08:21:32.827Z,4.23
2019-05-30T08:24:02.894Z,3.40
2019-05-30T08:26:32.065Z,3.50
2019-05-30T08:29:00.523Z,3.90
2019-05-30T08:31:28.888Z,3.90
2019-05-30T08:33:57.483Z,2.80
2019-05-30T08:36:25.879Z,3.40
2019-05-30T08:38:54.244Z,3.53
2019-05-30T08:41:22.646Z,3.33
2019-05-30T08:43:51.004Z,3.60
2019-05-30T08:46:19.538Z,2.63
2019-05-30T08:48:48.294Z,3.00
2019-05-30T08:51:16.774Z,3.13
2019-05-30T08:53:45.140Z,3.30
2019-05-30T08:56:13.697Z,3.00
2019-05-30T08:58:42.345Z,2.77
2019-05-30T09:01:11.538Z,2.80
2019-05-30T09:03:40.374Z,2.30
2019-05-30T09:06:09.136Z,2.60
2019-05-30T09:08:40.074Z,3.10
2019-05-30T09:11:08.585Z,2.50
2019-05-30T09:13:37.854Z,3.30
2019-05-30T09:16:09.054Z,3.10
2019-05-30T09:18:39.846Z,2.90
2019-05-30T09:21:08.431Z,2.73
2019-05-30T09:23:38.298Z,2.57
2019-05-30T09:26:07.178Z,3.10
2019-05-30T09:28:35.660Z,3.30
2019-05-30T09:31:04.143Z,4.87
2019-05-30T09:33:33.343Z,2.70
2019-05-30T09:36:12.758Z,3.53
2019-05-30T09:38:32.202Z,3.03
2019-05-30T09:41:00.911Z,3.00
2019-05-30T09:43:30.002Z,2.50
2019-05-30T09:45:58.461Z,2.33
2019-05-30T09:48:26.844Z,2.00
2019-05-30T09:50:55.349Z,2.07
2019-05-30T09:53:23.981Z,2.37
2019-05-30T09:55:53.101Z,1.90
2019-05-30T09:58:21.738Z,2.60
2019-05-30T10:00:50.480Z,2.10
2019-05-30T10:03:19.255Z,1.70
2019-05-30T10:05:48.668Z,2.23
2019-05-30T10:08:17.307Z,2.77
2019-05-30T10:10:47.750Z,3.00
2019-05-30T10:13:16.723Z,2.27
2019-05-30T10:15:46.866Z,2.10
2019-05-30T10:18:15.741Z,2.50
2019-05-30T10:20:44.659Z,2.27
2019-05-30T10:23:15.944Z,2.20
2019-05-30T10:25:46.136Z,2.00
2019-05-30T10:28:15.379Z,2.00
2019-05-30T10:30:47.179Z,2.07
2019-05-30T10:33:15.521Z,1.80
2019-05-30T10:35:45.581Z,1.90
2019-05-30T10:38:15.127Z,1.67
2019-05-30T10:40:43.942Z,1.97
2019-05-30T10:43:12.543Z,2.47
2019-05-30T10:45:41.196Z,2.40
2019-05-30T10:48:09.835Z,2.07
2019-05-30T10:50:39.233Z,2.30
2019-05-30T10:53:07.626Z,2.10
2019-05-30T10:55:37.336Z,2.50
2019-05-30T10:58:07.561Z,2.00
2019-05-30T11:00:50.947Z,2.17
2019-05-30T11:03:23.339Z,2.20
2019-05-30T11:07:01.267Z,2.20
2019-05-30T11:09:20.116Z,2.20
2019-05-30T11:11:48.738Z,2.20
2019-05-30T11:14:17.389Z,2.67
2019-05-30T11:16:47.044Z,2.50
2019-05-30T11:19:16.830Z,2.27
2019-05-30T11:21:45.207Z,2.17
2019-05-30T11:24:13.592Z,2.10
2019-05-30T11:26:42.193Z,2.37
2019-05-30T11:29:11.593Z,1.80
2019-05-30T11:31:40.697Z,2.20
2019-05-30T11:34:09.080Z,1.90
2019-05-30T11:36:37.560Z,2.13
2019-05-30T11:39:06.483Z,2.17
2019-05-30T11:41:36.824Z,2.63
2019-05-30T11:44:06.413Z,2.03
2019-05-30T11:46:34.814Z,2.40
2019-05-30T11:49:03.287Z,2.60
2019-05-30T11:51:31.693Z,2.20
2019-05-30T11:54:01.038Z,2.50
2019-05-30T11:56:29.748Z,2.20
2019-05-30T11:58:58.357Z,2.17
2019-05-30T12:01:26.835Z,2.30
2019-05-30T12:03:56.535Z,2.17
2019-05-30T12:06:25.245Z,2.37
2019-05-30T12:08:54.737Z,2.30
2019-05-30T12:11:23.248Z,2.10
2019-05-30T12:13:53.133Z,2.80
2019-05-30T12:16:21.959Z,2.10
2019-05-30T12:18:51.337Z,2.10
2019-05-30T12:21:20.016Z,2.67
2019-05-30T12:23:48.507Z,2.50
2019-05-30T12:26:17.739Z,1.97
2019-05-30T12:28:46.114Z,2.47
2019-05-30T12:31:14.599Z,2.03
2019-05-30T12:33:43.246Z,2.00
2019-05-30T12:36:11.912Z,1.90
2019-05-30T12:38:40.672Z,2.00
2019-05-30T12:41:09.153Z,1.67
2019-05-30T12:43:37.522Z,1.70
2019-05-30T12:46:06.030Z,1.67
2019-05-30T12:48:36.200Z,1.60
2019-05-30T12:51:05.546Z,2.10
2019-05-30T12:53:34.785Z,1.70
2019-05-30T12:56:03.730Z,1.60
2019-05-30T12:58:32.182Z,1.70
2019-05-30T13:01:00.909Z,1.80
2019-05-30T13:03:31.154Z,1.77
2019-05-30T13:06:01.120Z,1.40
2019-05-30T13:08:29.695Z,1.53
2019-05-30T13:10:59.853Z,1.60
2019-05-30T13:13:28.321Z,1.50
2019-05-30T13:15:58.759Z,1.77
2019-05-30T13:18:27.290Z,1.90
2019-05-30T13:20:55.984Z,1.83
2019-05-30T13:23:24.472Z,2.50
2019-05-30T13:25:53.348Z,2.00
2019-05-30T13:28:21.830Z,1.93
2019-05-30T13:30:51.332Z,1.73
2019-05-30T13:33:19.830Z,2.10
2019-05-30T13:35:48.302Z,1.60
2019-05-30T13:38:26.024Z,1.60
2019-05-30T13:40:47.039Z,2.00
2019-05-30T13:43:15.542Z,2.13
2019-05-30T13:45:44.054Z,2.10
2019-05-30T13:48:12.400Z,1.73
2019-05-30T13:50:40.922Z,1.50
2019-05-30T13:53:09.720Z,1.80
2019-05-30T13:55:38.360Z,1.57
2019-05-30T13:58:07.806Z,1.60
2019-05-30T14:00:38.267Z,1.57
2019-05-30T14:03:06.643Z,1.53
2019-05-30T14:05:35.127Z,1.33
2019-05-30T14:08:08.341Z,1.63
2019-05-30T14:10:34.362Z,1.80
2019-05-30T14:13:02.776Z,1.70
2019-05-30T14:15:31.558Z,1.40
2019-05-30T14:18:03.405Z,1.67
2019-05-30T14:20:32.074Z,1.70
2019-05-30T14:23:01.244Z,1.87
2019-05-30T14:25:29.922Z,2.17
2019-05-30T14:27:59.010Z,2.00
2019-05-30T14:30:27.385Z,1.60
2019-05-30T14:32:55.750Z,1.77
2019-05-30T14:35:24.343Z,1.90
2019-05-30T14:37:52.815Z,1.83
2019-05-30T14:40:21.416Z,2.17
2019-05-30T14:42:49.891Z,1.70
2019-05-30T14:45:20.223Z,1.90
2019-05-30T14:47:49.604Z,1.90
2019-05-30T14:50:19.144Z,2.00
2019-05-30T14:52:48.130Z,2.47
2019-05-30T14:55:17.360Z,2.00
2019-05-30T14:57:46.127Z,2.10
2019-05-30T15:00:17.655Z,2.40
2019-05-30T15:02:46.271Z,5.63
2019-05-30T15:05:15.711Z,3.00
2019-05-30T15:07:44.559Z,7.70
2019-05-30T15:10:13.235Z,5.10
2019-05-30T15:12:41.928Z,7.50
2019-05-30T15:15:16.346Z,9.27
2019-05-30T15:17:43.444Z,4.03
2019-05-30T15:20:13.846Z,2.27
2019-05-30T15:22:47.802Z,2.53
2019-05-30T15:25:17.970Z,4.10
2019-05-30T15:27:47.011Z,3.37
2019-05-30T15:30:16.822Z,2.70
2019-05-30T15:32:45.668Z,2.50
2019-05-30T15:35:15.573Z,2.33
2019-05-30T15:37:45.523Z,2.30
2019-05-30T15:40:15.106Z,2.53
2019-05-30T15:42:43.982Z,2.50
2019-05-30T15:45:13.925Z,2.67
2019-05-30T15:47:43.042Z,3.17
2019-05-30T15:50:15.250Z,2.80
2019-05-30T15:52:46.278Z,3.13
2019-05-30T15:55:17.474Z,2.53
2019-05-30T15:57:46.737Z,2.70
2019-05-30T16:00:16.169Z,3.00
2019-05-30T16:02:44.599Z,3.33
2019-05-30T16:05:14.462Z,3.40
2019-05-30T16:07:43.224Z,3.37
2019-05-30T16:10:12.830Z,2.53
2019-05-30T16:12:41.458Z,3.20
2019-05-30T16:15:11.632Z,3.27
2019-05-30T16:17:42.579Z,2.43
2019-05-30T16:20:11.783Z,3.03
2019-05-30T16:22:49.001Z,3.80
2019-05-30T16:25:17.860Z,3.03
2019-05-30T16:27:46.316Z,2.80
2019-05-30T16:30:19.776Z,3.37
2019-05-30T16:32:45.693Z,5.97
2019-05-30T16:35:14.262Z,3.13
2019-05-30T16:37:43.805Z,2.90
2019-05-30T16:40:12.651Z,3.30
2019-05-30T16:42:41.215Z,3.30
2019-05-30T16:45:10.501Z,3.63
2019-05-30T16:47:39.711Z,3.70
2019-05-30T16:50:10.605Z,3.20
2019-05-30T16:52:40.677Z,3.00
2019-05-30T16:55:13.010Z,3.90
2019-05-30T16:57:41.436Z,3.27
2019-05-30T17:00:11.564Z,3.13
2019-05-30T17:02:41.286Z,3.40
2019-05-30T17:05:11.645Z,3.30
2019-05-30T17:07:40.325Z,4.30
2019-05-30T17:10:22.197Z,3.57
2019-05-30T17:12:39.984Z,3.63
2019-05-30T17:15:09.900Z,3.30
2019-05-30T17:17:38.474Z,4.67
2019-05-30T17:20:07.888Z,5.43
2019-05-30T17:22:38.561Z,5.50
2019-05-30T17:25:08.562Z,6.40
2019-05-30T17:27:37.229Z,5.00
2019-05-30T17:30:07.284Z,5.20
2019-05-30T17:32:37.513Z,5.13
2019-05-30T17:35:05.998Z,8.03
2019-05-30T17:37:34.413Z,6.93
2019-05-30T17:40:03.185Z,5.57
2019-05-30T17:42:32.723Z,6.60
2019-05-30T17:45:01.199Z,7.50
2019-05-30T17:47:29.687Z,8.80
2019-05-30T17:49:58.168Z,6.13
2019-05-30T17:52:27.896Z,7.57
2019-05-30T17:54:56.762Z,7.20
2019-05-30T17:57:25.997Z,7.60
2019-05-30T17:59:54.455Z,5.90
2019-05-30T18:02:22.823Z,5.20
2019-05-30T18:04:51.289Z,5.73
2019-05-30T18:07:20.796Z,5.73
2019-05-30T18:09:49.434Z,6.10
2019-05-30T18:12:17.804Z,5.70
2019-05-30T18:14:46.802Z,6.50
2019-05-30T18:17:15.185Z,6.13
2019-05-30T18:19:43.891Z,5.60
2019-05-30T18:22:12.463Z,4.93
2019-05-30T18:24:41.013Z,4.43
2019-05-30T18:27:09.493Z,5.17
2019-05-30T18:29:37.974Z,4.90
2019-05-30T18:32:07.357Z,5.80
2019-05-30T18:34:35.816Z,5.00
2019-05-30T18:37:04.208Z,5.50
2019-05-30T18:39:32.923Z,5.00
2019-05-30T18:42:03.404Z,5.90
2019-05-30T18:44:33.202Z,5.37
2019-05-30T18:47:03.683Z,5.37
2019-05-30T18:49:33.476Z,4.63
2019-05-30T18:52:01.848Z,4.90
2019-05-30T18:54:30.706Z,5.43
2019-05-30T18:56:59.237Z,6.07
2019-05-30T18:59:28.969Z,5.00
2019-05-30T19:01:57.608Z,6.93
2019-05-30T19:04:26.032Z,7.30
2019-05-30T19:06:55.026Z,7.10
2019-05-30T19:09:24.806Z,7.00
2019-05-30T19:11:53.988Z,6.80
2019-05-30T19:14:24.068Z,7.80
2019-05-30T19:16:53.565Z,7.03
2019-05-30T19:19:22.406Z,7.07
2019-05-30T19:21:50.804Z,7.30
2019-05-30T19:24:19.871Z,6.83
2019-05-30T19:26:48.280Z,6.93
2019-05-30T19:29:17.083Z,7.93
2019-05-30T19:31:45.654Z,6.43
2019-05-30T19:34:14.308Z,7.07
2019-05-30T19:36:42.693Z,8.63
2019-05-30T19:39:11.080Z,9.47
2019-05-30T19:41:53.695Z,8.70
2019-05-30T19:44:11.155Z,8.03
2019-05-30T19:46:40.233Z,7.53
2019-05-30T19:49:09.332Z,8.03
2019-05-30T19:51:39.901Z,10.50
2019-05-30T19:54:08.496Z,9.27
2019-05-30T19:56:40.119Z,8.77
2019-05-30T19:59:07.548Z,8.80
2019-05-30T20:01:36.446Z,8.03
2019-05-30T20:04:05.022Z,7.97
2019-05-30T20:06:34.504Z,8.77
2019-05-30T20:09:05.568Z,7.40
2019-05-30T20:11:35.155Z,9.03
2019-05-30T20:14:03.755Z,7.90
2019-05-30T20:16:32.172Z,7.50
2019-05-30T20:19:00.783Z,9.10
2019-05-30T20:21:29.210Z,7.67
2019-05-30T20:23:59.485Z,7.57
2019-05-30T20:26:28.454Z,7.50
2019-05-30T20:28:58.636Z,7.90
2019-05-30T20:31:27.021Z,8.90
2019-05-30T20:33:55.397Z,9.07
2019-05-30T20:36:23.898Z,9.20
2019-05-30T20:38:52.565Z,8.17
2019-05-30T20:41:20.973Z,7.67
2019-05-30T20:43:51.155Z,8.00
2019-05-30T20:46:23.102Z,7.90
2019-05-30T20:48:50.038Z,8.60
2019-05-30T20:51:21.209Z,7.87
2019-05-30T20:53:48.711Z,8.23
2019-05-30T20:56:17.154Z,9.40
2019-05-30T20:58:45.829Z,8.77
2019-05-30T21:01:14.325Z,8.47
2019-05-30T21:03:43.735Z,7.63
2019-05-30T21:06:13.232Z,11.07
2019-05-30T21:08:41.719Z,9.30
2019-05-30T21:11:11.100Z,8.60
2019-05-30T21:13:40.312Z,7.53
2019-05-30T21:16:10.496Z,9.63
2019-05-30T21:18:41.769Z,8.77
2019-05-30T21:21:10.282Z,8.20
2019-05-30T21:23:38.652Z,8.33
2019-05-30T21:26:07.237Z,7.07
2019-05-30T21:28:36.639Z,6.93
2019-05-30T21:31:05.305Z,7.40
2019-05-30T21:33:33.678Z,7.27
2019-05-30T21:36:02.249Z,8.00
2019-05-30T21:38:30.672Z,7.47
2019-05-30T21:40:59.166Z,8.00
2019-05-30T21:43:27.536Z,7.90
2019-05-30T21:45:55.936Z,7.10
2019-05-30T21:48:24.445Z,7.97
2019-05-30T21:50:52.830Z,6.63
2019-05-30T21:53:21.215Z,7.60
2019-05-30T21:55:50.167Z,7.43
2019-05-30T21:58:18.680Z,7.73
2019-05-30T22:01:30.985Z,8.67
2019-05-30T22:03:59.945Z,8.30
2019-05-30T22:06:28.315Z,8.47
2019-05-30T22:08:57.107Z,7.93
2019-05-30T22:11:25.575Z,6.37
2019-05-30T22:13:54.065Z,7.70
2019-05-30T22:16:24.348Z,7.33
2019-05-30T22:18:54.557Z,7.10
2019-05-30T22:21:23.166Z,7.40
2019-05-30T22:23:52.519Z,7.47
2019-05-30T22:26:21.146Z,7.53
2019-05-30T22:28:50.493Z,7.10
2019-05-30T22:31:19.236Z,7.20
2019-05-30T22:33:48.690Z,7.53
2019-05-30T22:36:19.097Z,7.03
2019-05-30T22:38:48.568Z,7.60
2019-05-30T22:41:18.884Z,6.90
2019-05-30T22:43:48.252Z,7.13
2019-05-30T22:46:16.852Z,7.10
2019-05-30T22:48:46.422Z,7.17
2019-05-30T22:51:14.998Z,6.80
2019-05-30T22:53:44.837Z,7.77
2019-05-30T22:56:13.411Z,6.70
2019-05-30T22:58:41.791Z,6.63
2019-05-30T23:01:10.372Z,7.10
2019-05-30T23:03:38.748Z,7.40
2019-05-30T23:06:07.156Z,7.27
2019-05-30T23:08:35.642Z,7.40
2019-05-30T23:11:04.018Z,7.67
2019-05-30T23:13:40.474Z,7.73
2019-05-30T23:16:03.847Z,8.70
2019-05-30T23:18:32.936Z,7.40
2019-05-30T23:21:01.510Z,7.27
2019-05-30T23:23:29.904Z,7.60
2019-05-30T23:25:58.384Z,8.30
2019-05-30T23:28:26.857Z,8.70
2019-05-30T23:30:56.097Z,10.93
2019-05-30T23:33:24.639Z,10.00
2019-05-30T23:35:54.414Z,9.80
2019-05-30T23:38:23.641Z,9.10
2019-05-30T23:40:52.938Z,9.97
2019-05-30T23:43:21.610Z,9.77
2019-05-30T23:45:51.381Z,9.37
2019-05-30T23:48:20.151Z,8.37
2019-05-30T23:50:49.672Z,9.90
2019-05-30T23:53:18.919Z,10.30
2019-05-30T23:55:47.485Z,10.60
2019-05-30T23:58:15.882Z,9.50
